Time;durP1;ratioP1;P1;durP2;ratioP2;P2;SDS_P1;SDS_P2;PMS_P1;PMS_P2;Temp;Humidity;BMP_temperature;BMP_pressure;BME280_temperature;BME280_humidity;BME280_pressure;Samples;Min_cycle;Max_cycle;Signal;HPM_P1;HPM_P2
2023/04/19 00:02:24;;;;;;;7.03;3.15;;;;;;;;;;4947935;28;92601;-79
2023/04/19 00:04:51;;;;;;;7.32;3.00;;;;;;;;;;4947774;28;92834;-79
2023/04/19 00:07:19;;;;;;;6.82;3.42;;;;;;;;;;4948669;28;94386;-79
2023/04/19 00:09:45;;;;;;;8.50;3.03;;;;;;;;;;4948300;28;93086;-79
2023/04/19 00:12:12;;;;;;;5.70;2.55;;;;;;;;;;4947630;28;92940;-79
2023/04/19 00:14:38;;;;;;;8.63;3.03;;;;;;;;;;4948757;28;92517;-80
2023/04/19 00:17:05;;;;;;;6.47;3.00;;;;;;;;;;4948088;28;93044;-80
2023/04/19 00:19:32;;;;;;;7.65;2.70;;;;;;;;;;4948413;28;93291;-80
2023/04/19 00:21:58;;;;;;;5.90;2.70;;;;;;;;;;4931957;28;95644;-80
2023/04/19 00:24:25;;;;;;;7.90;3.10;;;;;;;;;;4946820;28;94881;-80
2023/04/19 00:26:51;;;;;;;7.13;2.58;;;;;;;;;;4948055;28;93624;-80
2023/04/19 00:29:18;;;;;;;6.57;2.90;;;;;;;;;;4946606;28;93150;-79
2023/04/19 00:31:44;;;;;;;7.95;3.10;;;;;;;;;;4941420;28;93967;-80
2023/04/19 00:34:11;;;;;;;8.00;2.92;;;;;;;;;;4947723;28;93290;-79
2023/04/19 00:36:37;;;;;;;7.88;3.10;;;;;;;;;;4948608;28;93462;-81
2023/04/19 00:39:05;;;;;;;;;;;;;;;;;;4932701;28;95687;-81
2023/04/19 00:41:31;;;;;;;8.38;3.22;;;;;;;;;;4950666;28;93343;-81
2023/04/19 00:43:58;;;;;;;8.27;2.90;;;;;;;;;;4932927;28;93570;-81
2023/04/19 00:46:25;;;;;;;7.35;2.90;;;;;;;;;;4952840;28;97791;-82
2023/04/19 00:48:52;;;;;;;8.90;3.20;;;;;;;;;;4949307;28;92610;-82
2023/04/19 00:51:19;;;;;;;7.03;2.83;;;;;;;;;;4952366;28;92822;-80
2023/04/19 00:53:45;;;;;;;7.22;3.20;;;;;;;;;;4953221;28;93452;-80
2023/04/19 00:56:12;;;;;;;9.32;2.97;;;;;;;;;;4949319;28;92914;-80
2023/04/19 00:58:39;;;;;;;9.18;2.90;;;;;;;;;;4948904;28;94761;-80
2023/04/19 01:01:05;;;;;;;7.47;3.13;;;;;;;;;;4948958;28;93089;-80
2023/04/19 01:03:33;;;;;;;7.90;3.03;;;;;;;;;;4953220;28;91765;-80
2023/04/19 01:06:00;;;;;;;6.10;2.75;;;;;;;;;;4958588;28;93981;-79
2023/04/19 01:08:27;;;;;;;6.70;2.90;;;;;;;;;;4957303;28;93009;-81
2023/04/19 01:10:54;;;;;;;6.75;2.90;;;;;;;;;;4934997;28;94969;-80
2023/04/19 01:13:20;;;;;;;6.60;2.80;;;;;;;;;;4951886;28;93472;-80
2023/04/19 01:15:47;;;;;;;7.85;3.15;;;;;;;;;;4941615;28;92644;-80
2023/04/19 01:18:13;;;;;;;6.72;2.70;;;;;;;;;;4959814;28;92776;-81
2023/04/19 01:20:41;;;;;;;6.70;3.15;;;;;;;;;;4963826;28;95843;-81
2023/04/19 01:23:10;;;;;;;8.20;3.13;;;;;;;;;;4969986;28;92598;-80
2023/04/19 01:25:37;;;;;;;7.40;3.35;;;;;;;;;;4967953;28;92821;-80
2023/04/19 01:28:04;;;;;;;6.40;3.50;;;;;;;;;;4963491;28;91759;-80
2023/04/19 01:30:31;;;;;;;7.65;3.15;;;;;;;;;;4939640;28;93852;-80
2023/04/19 01:32:58;;;;;;;8.00;3.10;;;;;;;;;;4934174;28;95586;-80
2023/04/19 01:35:24;;;;;;;7.47;3.63;;;;;;;;;;4948649;28;95254;-80
2023/04/19 01:37:54;;;;;;;6.90;3.40;;;;;;;;;;4947807;28;95755;-80
2023/04/19 01:40:22;;;;;;;8.93;3.47;;;;;;;;;;4944146;28;95732;-80
2023/04/19 01:42:49;;;;;;;13.15;4.28;;;;;;;;;;4947237;28;93117;-79
2023/04/19 01:45:15;;;;;;;13.80;4.05;;;;;;;;;;4928976;28;96262;-80
2023/04/19 01:47:41;;;;;;;10.05;3.97;;;;;;;;;;4945888;28;94365;-80
2023/04/19 01:50:08;;;;;;;12.38;4.47;;;;;;;;;;4949519;28;92826;-80
2023/04/19 01:52:35;;;;;;;8.75;4.15;;;;;;;;;;4947239;28;92905;-79
2023/04/19 01:55:01;;;;;;;7.97;4.28;;;;;;;;;;4945305;28;92963;-79
2023/04/19 01:57:28;;;;;;;9.70;4.05;;;;;;;;;;4951235;28;95328;-79
2023/04/19 01:59:56;;;;;;;8.25;3.55;;;;;;;;;;4944662;28;96192;-79
2023/04/19 02:02:22;;;;;;;9.25;4.22;;;;;;;;;;4944423;28;93093;-79
2023/04/19 02:04:49;;;;;;;9.35;3.83;;;;;;;;;;4944960;28;95694;-79
2023/04/19 02:07:15;;;;;;;7.93;4.22;;;;;;;;;;4945042;28;94734;-79
2023/04/19 02:09:42;;;;;;;8.63;4.00;;;;;;;;;;4932109;28;93148;-78
2023/04/19 02:12:08;;;;;;;7.40;3.80;;;;;;;;;;4946823;28;95608;-79
2023/04/19 02:14:35;;;;;;;8.13;3.95;;;;;;;;;;4940242;28;92551;-79
2023/04/19 02:17:02;;;;;;;7.68;3.95;;;;;;;;;;4941055;28;93967;-81
2023/04/19 02:19:28;;;;;;;7.80;3.55;;;;;;;;;;4949005;28;95812;-79
2023/04/19 02:21:56;;;;;;;7.30;3.50;;;;;;;;;;4949707;28;92759;-80
2023/04/19 02:24:23;;;;;;;8.18;3.55;;;;;;;;;;4949215;28;95008;-80
2023/04/19 02:26:50;;;;;;;9.43;3.40;;;;;;;;;;4950013;28;93086;-79
2023/04/19 02:29:17;;;;;;;7.10;3.17;;;;;;;;;;4932052;28;93294;-79
2023/04/19 02:31:45;;;;;;;7.88;3.45;;;;;;;;;;4951296;28;93859;-79
2023/04/19 02:34:12;;;;;;;8.00;3.95;;;;;;;;;;4949903;28;93151;-79
2023/04/19 02:36:39;;;;;;;6.88;3.35;;;;;;;;;;4950496;28;93624;-79
2023/04/19 02:39:05;;;;;;;8.13;4.00;;;;;;;;;;4941717;28;93057;-79
2023/04/19 02:41:32;;;;;;;9.27;3.50;;;;;;;;;;4948535;28;91693;-79
2023/04/19 02:44:00;;;;;;;9.85;4.20;;;;;;;;;;4931620;28;95917;-79
2023/04/19 02:46:26;;;;;;;7.45;3.38;;;;;;;;;;4953311;28;94124;-78
2023/04/19 02:48:53;;;;;;;10.32;3.97;;;;;;;;;;4948752;28;94937;-80
2023/04/19 02:51:20;;;;;;;9.23;4.22;;;;;;;;;;4949969;28;95119;-80
2023/04/19 02:53:46;;;;;;;7.32;3.58;;;;;;;;;;4952870;28;93615;-80
2023/04/19 02:56:13;;;;;;;8.65;4.20;;;;;;;;;;4949279;28;92688;-80
2023/04/19 02:58:39;;;;;;;8.18;3.90;;;;;;;;;;4941570;28;94132;-80
2023/04/19 03:01:06;;;;;;;9.48;4.07;;;;;;;;;;4947667;28;92752;-80
2023/04/19 03:03:33;;;;;;;8.02;3.83;;;;;;;;;;4949259;28;95479;-80
2023/04/19 03:05:59;;;;;;;8.10;3.60;;;;;;;;;;4949538;28;95354;-80
2023/04/19 03:08:26;;;;;;;;;;;;;;;;;;4950903;28;92909;-81
2023/04/19 03:10:53;;;;;;;8.57;4.00;;;;;;;;;;4934454;28;109324;-80
2023/04/19 03:13:20;;;;;;;9.13;3.95;;;;;;;;;;4950779;28;98181;-80
2023/04/19 03:15:47;;;;;;;7.88;4.00;;;;;;;;;;4939350;28;92958;-80
2023/04/19 03:18:16;;;;;;;7.93;3.78;;;;;;;;;;4923416;28;95637;-80
2023/04/19 03:20:42;;;;;;;8.27;3.70;;;;;;;;;;4954483;28;92938;-80
2023/04/19 03:23:09;;;;;;;7.45;3.78;;;;;;;;;;4932657;28;95563;-79
2023/04/19 03:25:36;;;;;;;11.15;3.85;;;;;;;;;;4934071;28;95173;-81
2023/04/19 03:28:15;;;;;;;8.93;3.75;;;;;;;;;;4917108;28;92540;-80
2023/04/19 03:31:01;;;;;;;8.40;3.60;;;;;;;;;;4950095;28;91984;-80
2023/04/19 03:33:28;;;;;;;7.68;3.70;;;;;;;;;;4932059;28;95352;-80
2023/04/19 03:35:54;;;;;;;8.43;3.72;;;;;;;;;;4941482;28;92524;-80
2023/04/19 03:38:22;;;;;;;8.55;4.22;;;;;;;;;;4947253;28;95629;-79
2023/04/19 03:40:49;;;;;;;9.27;4.20;;;;;;;;;;4948079;28;92477;-80
2023/04/19 03:43:16;;;;;;;8.48;4.03;;;;;;;;;;4931920;28;93830;-80
2023/04/19 03:45:42;;;;;;;8.27;3.50;;;;;;;;;;4947410;28;95719;-79
2023/04/19 03:48:10;;;;;;;7.40;3.60;;;;;;;;;;4945516;28;92768;-80
2023/04/19 03:50:37;;;;;;;8.07;3.55;;;;;;;;;;4930666;28;94850;-80
2023/04/19 03:53:04;;;;;;;7.80;3.40;;;;;;;;;;4931814;28;96002;-80
2023/04/19 03:55:31;;;;;;;8.55;3.47;;;;;;;;;;4944481;28;92363;-80
2023/04/19 03:57:59;;;;;;;7.53;3.45;;;;;;;;;;4947314;28;93365;-80
2023/04/19 04:00:48;;;;;;;8.00;3.60;;;;;;;;;;4950991;28;98818;-80
2023/04/19 04:03:15;;;;;;;7.57;3.40;;;;;;;;;;4946511;28;95339;-80
2023/04/19 04:05:42;;;;;;;7.43;3.22;;;;;;;;;;4936969;28;93376;-80
2023/04/19 04:08:08;;;;;;;7.93;3.83;;;;;;;;;;4958669;28;92768;-79
2023/04/19 04:10:35;;;;;;;7.50;3.60;;;;;;;;;;4954076;28;95244;-80
2023/04/19 04:13:01;;;;;;;7.35;3.20;;;;;;;;;;4931634;28;96170;-80
2023/04/19 04:15:39;;;;;;;7.13;3.25;;;;;;;;;;4932895;28;92447;-80
2023/04/19 04:18:08;;;;;;;10.10;3.40;;;;;;;;;;4935318;28;95351;-80
2023/04/19 04:20:35;;;;;;;7.32;3.25;;;;;;;;;;4950912;28;92382;-80
2023/04/19 04:23:06;;;;;;;7.82;3.40;;;;;;;;;;4946074;28;94405;-80
2023/04/19 04:25:36;;;;;;;8.50;3.80;;;;;;;;;;4946484;28;95080;-80
2023/04/19 04:28:05;;;;;;;9.80;3.22;;;;;;;;;;4912586;28;95305;-80
2023/04/19 04:30:32;;;;;;;7.28;3.33;;;;;;;;;;4948471;28;102656;-79
2023/04/19 04:32:59;;;;;;;10.88;3.83;;;;;;;;;;4929915;28;94129;-79
2023/04/19 04:35:28;;;;;;;12.88;3.50;;;;;;;;;;4947861;28;93907;-79
2023/04/19 04:38:04;;;;;;;8.55;3.33;;;;;;;;;;4942781;28;95061;-79
2023/04/19 04:40:52;;;;;;;7.25;3.15;;;;;;;;;;4944645;28;100465;-79
2023/04/19 04:43:20;;;;;;;7.88;3.40;;;;;;;;;;4951166;28;92511;-79
2023/04/19 04:45:47;;;;;;;7.15;2.97;;;;;;;;;;4935714;28;94628;-78
2023/04/19 04:48:14;;;;;;;6.40;2.78;;;;;;;;;;4945437;28;92712;-80
2023/04/19 04:50:40;;;;;;;7.43;2.95;;;;;;;;;;4946977;28;94099;-80
2023/04/19 04:53:07;;;;;;;8.13;2.92;;;;;;;;;;4943715;28;97979;-80
2023/04/19 04:55:35;;;;;;;8.57;3.35;;;;;;;;;;4929384;28;92498;-80
2023/04/19 04:58:04;;;;;;;7.75;3.10;;;;;;;;;;4947883;28;92969;-80
2023/04/19 05:00:45;;;;;;;7.05;3.13;;;;;;;;;;4932948;28;100011;-80
2023/04/19 05:03:12;;;;;;;7.32;3.10;;;;;;;;;;4910303;28;92585;-80
2023/04/19 05:05:45;;;;;;;6.95;3.10;;;;;;;;;;4942907;28;95195;-80
2023/04/19 05:08:11;;;;;;;8.90;3.30;;;;;;;;;;4929544;28;93278;-80
2023/04/19 05:10:38;;;;;;;7.47;3.40;;;;;;;;;;4930115;28;95365;-82
2023/04/19 05:13:05;;;;;;;6.93;3.22;;;;;;;;;;4945534;28;95702;-80
2023/04/19 05:15:32;;;;;;;7.35;3.33;;;;;;;;;;4951114;28;92487;-79
2023/04/19 05:18:00;;;;;;;6.53;3.17;;;;;;;;;;4928053;28;96224;-80
2023/04/19 05:20:29;;;;;;;7.57;3.55;;;;;;;;;;4935487;28;96004;-80
2023/04/19 05:23:10;;;;;;;6.70;3.08;;;;;;;;;;4946475;28;93370;-79
2023/04/19 05:25:38;;;;;;;5.93;2.90;;;;;;;;;;4946457;28;92928;-80
2023/04/19 05:28:05;;;;;;;8.25;3.08;;;;;;;;;;4948875;28;96002;-79
2023/04/19 05:30:41;;;;;;;8.60;3.40;;;;;;;;;;4945692;28;99537;-79
2023/04/19 05:33:08;;;;;;;8.88;3.70;;;;;;;;;;4933727;28;94735;-80
2023/04/19 05:35:35;;;;;;;7.05;3.45;;;;;;;;;;4926815;28;92220;-79
2023/04/19 05:38:02;;;;;;;8.98;3.00;;;;;;;;;;4937624;28;94993;-79
2023/04/19 05:40:29;;;;;;;6.82;2.95;;;;;;;;;;4914614;28;96083;-79
2023/04/19 05:42:57;;;;;;;7.82;3.55;;;;;;;;;;4943560;28;95360;-78
2023/04/19 05:45:24;;;;;;;6.78;2.95;;;;;;;;;;4945331;28;97709;-78
2023/04/19 05:47:51;;;;;;;6.72;3.00;;;;;;;;;;4945190;28;95730;-78
2023/04/19 05:50:38;;;;;;;7.75;3.03;;;;;;;;;;4949519;28;95249;-78
2023/04/19 05:53:22;;;;;;;6.45;2.88;;;;;;;;;;4945783;28;94218;-79
2023/04/19 05:55:51;;;;;;;6.97;3.30;;;;;;;;;;4936136;28;92505;-79
2023/04/19 05:58:18;;;;;;;7.20;2.95;;;;;;;;;;4929188;28;95514;-80
2023/04/19 06:00:44;;;;;;;6.47;3.08;;;;;;;;;;4945922;28;92565;-79
2023/04/19 06:03:15;;;;;;;6.40;2.90;;;;;;;;;;4949267;28;92521;-80
2023/04/19 06:05:42;;;;;;;8.13;3.03;;;;;;;;;;4940003;28;95792;-80
2023/04/19 06:08:08;;;;;;;6.20;2.72;;;;;;;;;;4930862;28;98329;-80
2023/04/19 06:10:36;;;;;;;7.97;3.05;;;;;;;;;;4934750;28;92875;-80
2023/04/19 06:13:19;;;;;;;7.47;3.08;;;;;;;;;;4938940;28;94080;-79
2023/04/19 06:15:46;;;;;;;6.78;2.95;;;;;;;;;;4948092;28;92508;-79
2023/04/19 06:18:12;;;;;;;6.40;2.88;;;;;;;;;;4949971;28;92916;-80
2023/04/19 06:20:45;;;;;;;6.63;2.95;;;;;;;;;;4949673;28;94697;-80
2023/04/19 06:23:13;;;;;;;6.47;2.80;;;;;;;;;;4943506;28;92532;-79
2023/04/19 06:25:40;;;;;;;11.65;3.20;;;;;;;;;;4951099;28;93749;-79
2023/04/19 06:28:07;;;;;;;7.63;2.92;;;;;;;;;;4949598;28;93007;-79
2023/04/19 06:30:33;;;;;;;7.80;3.00;;;;;;;;;;4961007;28;92507;-79
2023/04/19 06:33:00;;;;;;;8.02;3.13;;;;;;;;;;4950889;28;95420;-78
2023/04/19 06:35:26;;;;;;;7.25;2.90;;;;;;;;;;4970131;28;92478;-79
2023/04/19 06:37:53;;;;;;;6.85;3.15;;;;;;;;;;4956838;28;92544;-79
2023/04/19 06:40:19;;;;;;;9.00;3.05;;;;;;;;;;4950605;28;93288;-79
2023/04/19 06:42:46;;;;;;;7.90;3.10;;;;;;;;;;4949448;28;92515;-80
2023/04/19 06:45:13;;;;;;;7.70;3.20;;;;;;;;;;4931183;28;94515;-79
2023/04/19 06:47:40;;;;;;;7.30;3.20;;;;;;;;;;4950344;28;93201;-79
2023/04/19 06:50:07;;;;;;;7.88;3.00;;;;;;;;;;4947924;28;91977;-79
2023/04/19 06:52:34;;;;;;;6.28;2.80;;;;;;;;;;4950090;28;92483;-78
2023/04/19 06:55:01;;;;;;;;;;;;;;;;;;4953365;28;93570;-79
2023/04/19 06:57:27;;;;;;;5.53;2.60;;;;;;;;;;4945259;28;112627;-79
2023/04/19 06:59:54;;;;;;;6.15;3.10;;;;;;;;;;4948457;28;93296;-78
2023/04/19 07:02:21;;;;;;;6.93;2.97;;;;;;;;;;4946927;28;92575;-78
2023/04/19 07:04:47;;;;;;;6.38;2.90;;;;;;;;;;4946989;28;94033;-78
2023/04/19 07:07:14;;;;;;;6.82;3.08;;;;;;;;;;4948731;28;93067;-79
2023/04/19 07:09:40;;;;;;;6.97;3.25;;;;;;;;;;4947927;28;92683;-80
2023/04/19 07:12:07;;;;;;;7.75;3.15;;;;;;;;;;4950671;28;93879;-77
2023/04/19 07:14:34;;;;;;;6.05;2.90;;;;;;;;;;4941971;28;93874;-77
2023/04/19 07:17:02;;;;;;;8.10;3.28;;;;;;;;;;4950962;28;92687;-77
2023/04/19 07:19:29;;;;;;;6.40;2.30;;;;;;;;;;4948372;28;93190;-79
2023/04/19 07:21:55;;;;;;;6.50;2.40;;;;;;;;;;4947100;28;95390;-79
2023/04/19 07:24:22;;;;;;;4.55;2.20;;;;;;;;;;4948612;28;95051;-78
2023/04/19 07:26:48;;;;;;;6.15;2.30;;;;;;;;;;4946083;28;93671;-77
2023/04/19 07:29:15;;;;;;;4.75;2.10;;;;;;;;;;4935383;28;93861;-78
2023/04/19 07:31:41;;;;;;;5.72;2.28;;;;;;;;;;4948090;28;93303;-78
2023/04/19 07:34:08;;;;;;;5.90;2.17;;;;;;;;;;4948440;28;93655;-78
2023/04/19 07:36:36;;;;;;;4.57;2.10;;;;;;;;;;4946173;28;92580;-78
2023/04/19 07:39:03;;;;;;;5.00;2.17;;;;;;;;;;4951753;28;92854;-78
2023/04/19 07:41:30;;;;;;;6.15;2.50;;;;;;;;;;4948269;28;92654;-78
2023/04/19 07:43:57;;;;;;;5.50;2.35;;;;;;;;;;4948659;28;92860;-78
2023/04/19 07:46:23;;;;;;;4.38;2.08;;;;;;;;;;4946342;28;95369;-78
2023/04/19 07:48:50;;;;;;;4.35;2.10;;;;;;;;;;4947224;28;92936;-78
2023/04/19 07:51:18;;;;;;;4.60;2.03;;;;;;;;;;4930382;28;96033;-78
2023/04/19 07:53:45;;;;;;;5.05;2.28;;;;;;;;;;4948243;28;93170;-78
2023/04/19 07:56:11;;;;;;;4.20;2.00;;;;;;;;;;4913210;28;100126;-78
2023/04/19 07:58:40;;;;;;;4.60;1.90;;;;;;;;;;4945175;28;93265;-79
2023/04/19 08:01:06;;;;;;;4.88;2.10;;;;;;;;;;4949461;28;93562;-77
2023/04/19 08:03:34;;;;;;;4.60;2.13;;;;;;;;;;4946955;28;93939;-77
2023/04/19 08:06:01;;;;;;;4.75;1.85;;;;;;;;;;4926263;28;93853;-80
2023/04/19 08:08:28;;;;;;;5.05;2.08;;;;;;;;;;4946602;28;92765;-79
2023/04/19 08:10:55;;;;;;;5.10;2.10;;;;;;;;;;4942631;28;95573;-79
2023/04/19 08:13:21;;;;;;;5.32;2.10;;;;;;;;;;4943325;28;96169;-79
2023/04/19 08:15:48;;;;;;;5.15;1.90;;;;;;;;;;4942353;28;92947;-77
2023/04/19 08:18:17;;;;;;;5.50;2.05;;;;;;;;;;4945959;28;92855;-77
2023/04/19 08:20:47;;;;;;;11.20;2.25;;;;;;;;;;4945390;28;93199;-77
2023/04/19 08:23:14;;;;;;;14.23;2.65;;;;;;;;;;4940320;28;92752;-80
2023/04/19 08:25:51;;;;;;;11.95;2.08;;;;;;;;;;4945235;28;93312;-77
2023/04/19 08:28:18;;;;;;;6.45;1.90;;;;;;;;;;4944761;28;92077;-78
2023/04/19 08:30:44;;;;;;;4.75;2.00;;;;;;;;;;4940151;28;92624;-77
2023/04/19 08:33:11;;;;;;;4.95;2.00;;;;;;;;;;4942454;28;93667;-78
2023/04/19 08:35:40;;;;;;;4.43;1.92;;;;;;;;;;4937189;28;94901;-77
2023/04/19 08:38:07;;;;;;;3.78;2.00;;;;;;;;;;4941456;28;95141;-78
2023/04/19 08:40:34;;;;;;;5.60;1.80;;;;;;;;;;4945673;28;98386;-77
2023/04/19 08:43:04;;;;;;;5.88;1.80;;;;;;;;;;4939928;28;92932;-78
2023/04/19 08:45:30;;;;;;;4.32;1.67;;;;;;;;;;4937564;28;93104;-78
2023/04/19 08:47:57;;;;;;;4.35;1.70;;;;;;;;;;4953156;28;93834;-78
2023/04/19 08:50:27;;;;;;;4.10;1.50;;;;;;;;;;4948991;28;94799;-77
2023/04/19 08:53:05;;;;;;;3.90;1.83;;;;;;;;;;4937242;28;92156;-78
2023/04/19 08:55:49;;;;;;;4.25;1.80;;;;;;;;;;4948873;28;92626;-78
2023/04/19 08:58:36;;;;;;;4.55;2.00;;;;;;;;;;4943519;28;96033;-77
2023/04/19 09:01:22;;;;;;;3.40;1.65;;;;;;;;;;4946958;28;96120;-78
2023/04/19 09:04:01;;;;;;;3.13;1.67;;;;;;;;;;4953466;28;92852;-78
2023/04/19 09:06:47;;;;;;;3.40;1.70;;;;;;;;;;4956797;28;97099;-78
2023/04/19 09:09:15;;;;;;;5.55;1.70;;;;;;;;;;4959629;28;92555;-77
2023/04/19 09:11:45;;;;;;;3.40;1.50;;;;;;;;;;4956361;28;93521;-78
2023/04/19 09:14:13;;;;;;;3.58;1.67;;;;;;;;;;4959405;28;94651;-77
2023/04/19 09:16:40;;;;;;;3.30;1.75;;;;;;;;;;4958991;28;92484;-78
2023/04/19 09:19:11;;;;;;;4.35;1.60;;;;;;;;;;4949129;28;98104;-77
2023/04/19 09:21:51;;;;;;;3.97;1.58;;;;;;;;;;4942537;28;92774;-77
2023/04/19 09:24:18;;;;;;;4.20;1.70;;;;;;;;;;4941757;28;93432;-77
2023/04/19 09:26:53;;;;;;;3.25;1.50;;;;;;;;;;4939459;28;95181;-77
2023/04/19 09:29:20;;;;;;;3.47;1.35;;;;;;;;;;4942403;28;92943;-78
2023/04/19 09:31:55;;;;;;;3.58;1.60;;;;;;;;;;4938111;28;92742;-79
2023/04/19 09:34:22;;;;;;;2.85;1.65;;;;;;;;;;4938066;28;93794;-79
2023/04/19 09:36:49;;;;;;;3.70;1.45;;;;;;;;;;4930248;28;92907;-78
2023/04/19 09:39:36;;;;;;;1.83;1.40;;;;;;;;;;4934477;28;92897;-78
2023/04/19 09:42:03;;;;;;;3.42;1.60;;;;;;;;;;4943818;28;93991;-77
2023/04/19 09:44:32;;;;;;;3.53;1.33;;;;;;;;;;4936868;28;92352;-77
2023/04/19 09:47:23;;;;;;;3.08;1.30;;;;;;;;;;4932848;28;94615;-77
2023/04/19 09:50:05;;;;;;;2.67;1.40;;;;;;;;;;4945372;28;93036;-78
2023/04/19 09:52:48;;;;;;;3.95;1.50;;;;;;;;;;4937267;28;95959;-79
2023/04/19 09:55:15;;;;;;;3.42;1.50;;;;;;;;;;4938180;28;93593;-79
2023/04/19 09:57:54;;;;;;;2.25;1.40;;;;;;;;;;4937951;28;92857;-79
2023/04/19 10:00:21;;;;;;;3.55;1.40;;;;;;;;;;4940478;28;94267;-79
2023/04/19 10:02:53;;;;;;;;;;;;;;;;;;4941504;28;95958;-79
2023/04/19 10:05:21;;;;;;;2.35;1.27;;;;;;;;;;4941318;28;92833;-80
2023/04/19 10:07:48;;;;;;;3.50;1.35;;;;;;;;;;4933276;28;92616;-79
2023/04/19 10:10:18;;;;;;;3.22;1.38;;;;;;;;;;4937045;28;92393;-79
2023/04/19 10:12:50;;;;;;;2.42;1.33;;;;;;;;;;4937125;28;93044;-79
2023/04/19 10:15:36;;;;;;;2.80;1.25;;;;;;;;;;4933009;28;93061;-80
2023/04/19 10:18:06;;;;;;;2.25;1.30;;;;;;;;;;4934924;28;94943;-80
2023/04/19 10:20:38;;;;;;;1.92;1.10;;;;;;;;;;4939279;28;99932;-79
2023/04/19 10:23:06;;;;;;;3.20;1.30;;;;;;;;;;4935513;28;93754;-79
2023/04/19 10:25:35;;;;;;;2.85;1.30;;;;;;;;;;4938543;28;92604;-79
2023/04/19 10:28:02;;;;;;;2.00;1.20;;;;;;;;;;4941012;28;99472;-79
2023/04/19 10:30:28;;;;;;;2.22;1.17;;;;;;;;;;4936500;28;94317;-80
2023/04/19 10:32:56;;;;;;;3.83;1.35;;;;;;;;;;4937938;28;93872;-79
2023/04/19 10:35:30;;;;;;;3.08;1.10;;;;;;;;;;4924910;28;93758;-79
2023/04/19 10:38:05;;;;;;;2.70;1.30;;;;;;;;;;4940181;28;92527;-80
2023/04/19 10:40:54;;;;;;;2.60;1.20;;;;;;;;;;4946689;28;97743;-79
2023/04/19 10:43:25;;;;;;;2.97;1.30;;;;;;;;;;4945085;28;95491;-80
2023/04/19 10:45:52;;;;;;;2.50;1.20;;;;;;;;;;4943198;28;92537;-81
2023/04/19 10:48:25;;;;;;;3.05;1.30;;;;;;;;;;4949020;28;95242;-81
2023/04/19 10:51:13;;;;;;;3.92;1.40;;;;;;;;;;4945143;28;94326;-79
2023/04/19 10:53:58;;;;;;;2.10;1.10;;;;;;;;;;4942112;28;92884;-79
2023/04/19 10:56:24;;;;;;;;;;;;;;;;;;4942276;28;97632;-79
2023/04/19 10:59:07;;;;;;;2.38;1.20;;;;;;;;;;4942611;28;101578;-79
2023/04/19 11:01:38;;;;;;;2.25;1.13;;;;;;;;;;4939790;28;93173;-79
2023/04/19 11:04:05;;;;;;;2.63;1.23;;;;;;;;;;4933393;28;93319;-80
2023/04/19 11:06:33;;;;;;;2.22;1.27;;;;;;;;;;4944316;28;92876;-80
2023/04/19 11:09:01;;;;;;;2.35;1.10;;;;;;;;;;4940966;28;95192;-80
2023/04/19 11:11:31;;;;;;;2.70;1.20;;;;;;;;;;4934269;28;95846;-79
2023/04/19 11:13:59;;;;;;;4.75;1.30;;;;;;;;;;4934108;28;92772;-80
2023/04/19 11:16:25;;;;;;;;;;;;;;;;;;4943407;28;94689;-79
2023/04/19 11:19:07;;;;;;;2.15;1.10;;;;;;;;;;4936429;28;93099;-80
2023/04/19 11:21:54;;;;;;;1.77;1.10;;;;;;;;;;4942958;28;93186;-80
2023/04/19 11:24:20;;;;;;;2.53;1.33;;;;;;;;;;4934007;28;92863;-80
2023/04/19 11:26:47;;;;;;;2.65;1.20;;;;;;;;;;4945779;28;91895;-80
2023/04/19 11:29:14;;;;;;;3.95;1.25;;;;;;;;;;4946387;28;92838;-80
2023/04/19 11:31:45;;;;;;;2.35;1.00;;;;;;;;;;4909692;28;94067;-80
2023/04/19 11:34:12;;;;;;;2.17;1.17;;;;;;;;;;4935508;28;95520;-80
2023/04/19 11:36:49;;;;;;;2.58;1.20;;;;;;;;;;4939450;28;96273;-80
2023/04/19 11:39:15;;;;;;;2.25;1.17;;;;;;;;;;4943013;28;93564;-81
2023/04/19 11:41:42;;;;;;;2.60;1.20;;;;;;;;;;4942557;28;93009;-81
2023/04/19 11:44:12;;;;;;;2.53;1.25;;;;;;;;;;4940823;28;93002;-82
2023/04/19 11:46:39;;;;;;;3.92;1.20;;;;;;;;;;4938130;28;94284;-84
2023/04/19 11:49:06;;;;;;;4.72;1.27;;;;;;;;;;4938033;28;93489;-82
2023/04/19 11:51:32;;;;;;;3.45;1.25;;;;;;;;;;4941512;28;92343;-81
2023/04/19 11:53:59;;;;;;;3.65;1.25;;;;;;;;;;4942098;28;92893;-83
2023/04/19 11:56:26;;;;;;;4.22;1.20;;;;;;;;;;4944527;28;92726;-83
2023/04/19 11:58:56;;;;;;;5.18;1.10;;;;;;;;;;4943913;28;95622;-83
2023/04/19 12:01:24;;;;;;;3.63;1.33;;;;;;;;;;4943487;28;92468;-84
2023/04/19 12:03:57;;;;;;;4.60;1.10;;;;;;;;;;4939168;28;93051;-84
2023/04/19 12:06:24;;;;;;;;;;;;;;;;;;4942713;28;94315;-83
2023/04/19 12:08:51;;;;;;;4.32;1.40;;;;;;;;;;4937830;28;92798;-86
2023/04/19 12:11:20;;;;;;;3.03;1.10;;;;;;;;;;4944581;28;92978;-84
2023/04/19 12:13:47;;;;;;;3.65;1.00;;;;;;;;;;4944280;28;92898;-84
2023/04/19 12:16:13;;;;;;;1.65;1.10;;;;;;;;;;4942101;28;93320;-82
2023/04/19 12:18:47;;;;;;;3.20;0.88;;;;;;;;;;4944878;28;93355;-82
2023/04/19 12:21:27;;;;;;;3.22;1.00;;;;;;;;;;4937598;28;92603;-82
2023/04/19 12:23:58;;;;;;;3.60;1.13;;;;;;;;;;4923887;28;97135;-82
2023/04/19 12:26:27;;;;;;;7.55;1.33;;;;;;;;;;4938542;28;93857;-82
2023/04/19 12:28:54;;;;;;;3.67;1.20;;;;;;;;;;4940368;28;92770;-83
2023/04/19 12:31:20;;;;;;;4.53;1.15;;;;;;;;;;4939834;28;93051;-83
2023/04/19 12:33:47;;;;;;;3.72;1.05;;;;;;;;;;4943944;28;92768;-82
2023/04/19 12:36:14;;;;;;;2.78;1.23;;;;;;;;;;4937115;28;92876;-81
2023/04/19 12:38:41;;;;;;;6.22;1.48;;;;;;;;;;4943382;28;93131;-81
2023/04/19 12:41:07;;;;;;;3.95;1.50;;;;;;;;;;4942317;28;91839;-83
2023/04/19 12:43:34;;;;;;;4.90;1.50;;;;;;;;;;4924661;28;93070;-82
2023/04/19 12:46:00;;;;;;;5.90;1.75;;;;;;;;;;4940661;28;93100;-81
2023/04/19 12:48:27;;;;;;;6.65;1.63;;;;;;;;;;4945863;28;95481;-81
2023/04/19 12:50:54;;;;;;;5.57;1.60;;;;;;;;;;4941355;28;96852;-80
2023/04/19 12:53:21;;;;;;;4.88;1.83;;;;;;;;;;4938339;28;93395;-81
2023/04/19 12:55:48;;;;;;;5.10;1.70;;;;;;;;;;4937716;28;93193;-80
2023/04/19 12:58:15;;;;;;;4.10;1.65;;;;;;;;;;4942065;28;93990;-82
2023/04/19 13:00:42;;;;;;;;;;;;;;;;;;4943696;28;93349;-81
2023/04/19 13:03:08;;;;;;;5.85;1.75;;;;;;;;;;4943737;28;113479;-80
2023/04/19 13:05:35;;;;;;;3.83;1.70;;;;;;;;;;4936852;28;92529;-81
2023/04/19 13:08:02;;;;;;;4.15;1.60;;;;;;;;;;4944830;28;92962;-83
2023/04/19 13:10:28;;;;;;;4.22;1.90;;;;;;;;;;4947377;28;93049;-84
2023/04/19 13:12:59;;;;;;;4.53;1.80;;;;;;;;;;4941072;28;95542;-83
2023/04/19 13:15:27;;;;;;;4.40;1.80;;;;;;;;;;4942268;28;94511;-81
2023/04/19 13:17:54;;;;;;;2.90;1.50;;;;;;;;;;4935125;28;93314;-81
2023/04/19 13:20:20;;;;;;;4.82;1.55;;;;;;;;;;4938030;28;93044;-83
2023/04/19 13:22:47;;;;;;;3.63;1.42;;;;;;;;;;4939717;28;93160;-83
2023/04/19 13:25:14;;;;;;;3.85;1.52;;;;;;;;;;4922304;28;95048;-83
2023/04/19 13:27:40;;;;;;;3.88;1.48;;;;;;;;;;4934436;28;93097;-83
2023/04/19 13:30:07;;;;;;;3.45;1.40;;;;;;;;;;4937981;28;93613;-80
2023/04/19 13:32:34;;;;;;;3.30;1.40;;;;;;;;;;4941810;28;93975;-82
2023/04/19 13:35:02;;;;;;;4.35;1.60;;;;;;;;;;4939462;28;94006;-81
2023/04/19 13:37:28;;;;;;;4.95;1.40;;;;;;;;;;4946107;28;96428;-82
2023/04/19 13:39:54;;;;;;;2.72;1.33;;;;;;;;;;4943303;28;92836;-79
2023/04/19 13:42:36;;;;;;;2.60;1.30;;;;;;;;;;4943246;28;98481;-79
2023/04/19 13:45:03;;;;;;;4.13;1.30;;;;;;;;;;4945336;28;93977;-79
2023/04/19 13:47:30;;;;;;;3.70;1.38;;;;;;;;;;4913792;28;92959;-78
2023/04/19 13:49:56;;;;;;;2.55;1.27;;;;;;;;;;4944601;28;92925;-79
2023/04/19 13:52:23;;;;;;;3.25;1.42;;;;;;;;;;4935345;28;93711;-80
2023/04/19 13:54:51;;;;;;;3.33;1.45;;;;;;;;;;4945273;28;92107;-78
2023/04/19 13:57:17;;;;;;;2.97;1.42;;;;;;;;;;4941669;28;94600;-79
2023/04/19 13:59:44;;;;;;;2.58;1.30;;;;;;;;;;4941516;28;92944;-78
2023/04/19 14:02:10;;;;;;;3.15;1.35;;;;;;;;;;4934001;28;95421;-80
2023/04/19 14:04:37;;;;;;;2.28;1.20;;;;;;;;;;4941247;28;93315;-79
2023/04/19 14:07:03;;;;;;;3.45;1.20;;;;;;;;;;4937368;28;93013;-79
2023/04/19 14:09:30;;;;;;;2.92;1.33;;;;;;;;;;4942077;28;92744;-79
2023/04/19 14:11:56;;;;;;;2.78;1.30;;;;;;;;;;4941681;28;93634;-79
2023/04/19 14:14:23;;;;;;;2.35;1.33;;;;;;;;;;4942003;28;94102;-79
2023/04/19 14:16:49;;;;;;;3.53;1.40;;;;;;;;;;4948303;28;92699;-79
2023/04/19 14:19:16;;;;;;;2.20;1.23;;;;;;;;;;4944337;28;91893;-80
2023/04/19 14:21:43;;;;;;;3.45;1.30;;;;;;;;;;4947413;28;93932;-80
2023/04/19 14:24:09;;;;;;;1.88;1.23;;;;;;;;;;4944139;28;94852;-79
2023/04/19 14:26:36;;;;;;;2.60;1.30;;;;;;;;;;4940194;28;95392;-80
2023/04/19 14:29:02;;;;;;;4.20;1.30;;;;;;;;;;4947365;28;95785;-80
2023/04/19 14:31:29;;;;;;;1.92;1.15;;;;;;;;;;4945860;28;93570;-79
2023/04/19 14:33:56;;;;;;;2.85;1.30;;;;;;;;;;4947639;28;93354;-79
2023/04/19 14:36:22;;;;;;;3.58;1.20;;;;;;;;;;4946475;28;93756;-79
2023/04/19 14:38:50;;;;;;;2.42;1.38;;;;;;;;;;4946444;28;93165;-79
2023/04/19 14:41:16;;;;;;;2.70;1.20;;;;;;;;;;4946925;28;93535;-79
2023/04/19 14:43:43;;;;;;;4.15;1.20;;;;;;;;;;4946554;28;94051;-79
2023/04/19 14:46:09;;;;;;;2.88;1.25;;;;;;;;;;4944700;28;93176;-79
2023/04/19 14:48:36;;;;;;;2.40;1.25;;;;;;;;;;4930131;28;93169;-80
2023/04/19 14:51:02;;;;;;;1.60;1.00;;;;;;;;;;4949965;28;97475;-80
2023/04/19 14:53:29;;;;;;;2.42;1.10;;;;;;;;;;4952842;28;92702;-79
2023/04/19 14:56:01;;;;;;;3.08;1.20;;;;;;;;;;4949779;28;93300;-79